Time;durP1;ratioP1;P1;durP2;ratioP2;P2;SDS_P1;SDS_P2;PMS_P1;PMS_P2;Temp;Humidity;BMP_temperature;BMP_pressure;BME280_temperature;BME280_humidity;BME280_pressure;Samples;Min_cycle;Max_cycle;Signal;HPM_P1;HPM_P2
2023/04/27 00:00:03;;;;;;;9.17;7.60;;;3.90;99.90;;;;;;5099101;28;20293;-58
2023/04/27 00:02:28;;;;;;;12.98;8.00;;;3.90;99.90;;;;;;5089980;28;20039;-58
2023/04/27 00:04:54;;;;;;;9.63;7.87;;;3.80;99.90;;;;;;5099413;28;20039;-58
2023/04/27 00:07:20;;;;;;;16.35;9.25;;;3.80;99.90;;;;;;5107602;28;20118;-58
2023/04/27 00:09:46;;;;;;;10.90;8.97;;;3.80;99.90;;;;;;5093741;28;20032;-59
2023/04/27 00:12:11;;;;;;;10.77;8.40;;;3.80;99.90;;;;;;5089944;28;20396;-59
2023/04/27 00:14:37;;;;;;;12.17;9.53;;;3.80;99.90;;;;;;5090210;28;20074;-58
2023/04/27 00:17:02;;;;;;;14.17;9.60;;;3.80;99.90;;;;;;5089965;28;20060;-58
2023/04/27 00:19:29;;;;;;;17.47;10.93;;;3.70;99.90;;;;;;5088594;28;20323;-57
2023/04/27 00:21:56;;;;;;;;;;;3.70;99.90;;;;;;5090633;28;20100;-56
2023/04/27 00:24:22;;;;;;;14.63;9.88;;;3.70;99.90;;;;;;5089779;28;20051;-58
2023/04/27 00:26:48;;;;;;;11.85;9.27;;;3.70;99.90;;;;;;5089798;28;20135;-59
2023/04/27 00:29:13;;;;;;;17.23;9.77;;;3.60;99.90;;;;;;5088729;28;20036;-58
2023/04/27 00:31:39;;;;;;;18.33;9.57;;;3.60;99.90;;;;;;5090160;28;20036;-58
2023/04/27 00:34:04;;;;;;;16.63;9.87;;;3.60;99.90;;;;;;5089902;28;20410;-59
2023/04/27 00:36:33;;;;;;;15.27;9.95;;;3.60;99.90;;;;;;5100855;28;20273;-54
2023/04/27 00:38:58;;;;;;;17.50;10.32;;;3.60;99.90;;;;;;5108581;28;20038;-59
2023/04/27 00:41:24;;;;;;;11.43;9.07;;;3.60;99.90;;;;;;5109479;28;20077;-57
2023/04/27 00:43:50;;;;;;;11.98;8.68;;;3.60;99.90;;;;;;5101433;28;20545;-57
2023/04/27 00:46:16;;;;;;;11.03;8.30;;;3.50;99.90;;;;;;5091815;28;20043;-58
2023/04/27 00:48:43;;;;;;;12.13;7.53;;;3.50;99.90;;;;;;5103372;28;20273;-58
2023/04/27 00:51:09;;;;;;;9.30;7.13;;;3.40;99.90;;;;;;5110366;28;20050;-57
2023/04/27 00:53:35;;;;;;;9.52;7.35;;;3.40;99.90;;;;;;5101251;28;20091;-58
2023/04/27 00:56:01;;;;;;;10.35;7.60;;;3.30;99.90;;;;;;5089815;28;20051;-58
2023/04/27 00:58:26;;;;;;;11.85;8.07;;;3.30;99.90;;;;;;5088887;28;20036;-57
2023/04/27 01:00:52;;;;;;;9.50;7.83;;;3.30;99.90;;;;;;5094540;28;20495;-55
2023/04/27 01:03:18;;;;;;;10.23;7.53;;;3.30;99.90;;;;;;5109919;28;20040;-58
2023/04/27 01:05:43;;;;;;;10.17;7.47;;;3.20;99.90;;;;;;5109816;28;20088;-57
2023/04/27 01:08:09;;;;;;;11.03;6.57;;;3.20;99.90;;;;;;5108384;28;20067;-58
2023/04/27 01:10:36;;;;;;;10.07;7.10;;;3.20;99.90;;;;;;5109338;28;20216;-58
2023/04/27 01:13:02;;;;;;;7.45;6.70;;;3.10;99.90;;;;;;5109992;28;20408;-57
2023/04/27 01:15:27;;;;;;;7.88;6.45;;;3.10;99.90;;;;;;5109962;28;20081;-58
2023/04/27 01:18:01;;;;;;;10.50;6.43;;;3.00;99.90;;;;;;5104046;28;20134;-59
2023/04/27 01:20:31;;;;;;;10.65;7.80;;;2.90;99.90;;;;;;5092370;28;20032;-57
2023/04/27 01:22:57;;;;;;;14.35;8.02;;;2.90;99.90;;;;;;5100114;28;20035;-59
2023/04/27 01:25:23;;;;;;;13.57;7.32;;;2.80;99.90;;;;;;5113787;28;20504;-58
2023/04/27 01:27:49;;;;;;;11.55;8.27;;;2.80;99.90;;;;;;5104292;28;20035;-55
2023/04/27 01:30:14;;;;;;;9.93;7.83;;;2.80;99.90;;;;;;5093179;28;20117;-57
2023/04/27 01:32:40;;;;;;;12.13;7.97;;;2.80;99.90;;;;;;5102031;28;20549;-58
2023/04/27 01:35:06;;;;;;;12.65;7.93;;;2.80;99.90;;;;;;5095215;28;20064;-59
2023/04/27 01:37:32;;;;;;;13.75;7.80;;;2.80;99.90;;;;;;5097048;28;20038;-55
2023/04/27 01:39:58;;;;;;;13.52;7.05;;;2.80;99.90;;;;;;5113241;28;20032;-58
2023/04/27 01:42:23;;;;;;;13.67;7.43;;;2.80;99.90;;;;;;5113450;28;20039;-57
2023/04/27 01:44:49;;;;;;;10.27;7.33;;;2.70;99.90;;;;;;5101707;28;20063;-58
2023/04/27 01:47:18;;;;;;;11.50;7.77;;;2.70;99.90;;;;;;5097872;28;20390;-57
2023/04/27 01:49:44;;;;;;;9.93;7.68;;;2.80;99.90;;;;;;5103037;28;20053;-58
2023/04/27 01:52:09;;;;;;;14.67;8.17;;;2.70;99.90;;;;;;5105411;28;20122;-57
2023/04/27 01:54:35;;;;;;;13.40;8.37;;;2.70;99.90;;;;;;5091933;28;20048;-57
2023/04/27 01:57:01;;;;;;;13.93;7.30;;;2.70;99.90;;;;;;5099634;28;20048;-58
2023/04/27 01:59:27;;;;;;;11.82;7.35;;;2.70;99.90;;;;;;5111737;28;20027;-57
2023/04/27 02:01:53;;;;;;;11.45;8.20;;;2.60;99.90;;;;;;5112914;28;20567;-58
2023/04/27 02:04:19;;;;;;;11.90;8.80;;;2.70;99.90;;;;;;5112813;28;20040;-58
2023/04/27 02:06:45;;;;;;;14.20;8.55;;;2.60;99.90;;;;;;5111173;28;20115;-57
2023/04/27 02:09:12;;;;;;;11.55;8.23;;;2.60;99.90;;;;;;5111547;28;20043;-58
2023/04/27 02:11:37;;;;;;;9.15;6.03;;;2.60;99.90;;;;;;5112960;28;20484;-58
2023/04/27 02:14:03;;;;;;;7.97;6.77;;;2.60;99.90;;;;;;5112744;28;20042;-56
2023/04/27 02:16:28;;;;;;;8.65;7.13;;;2.50;99.90;;;;;;5112851;28;20046;-56
2023/04/27 02:18:54;;;;;;;14.63;9.00;;;2.50;99.90;;;;;;5111945;28;20377;-57
2023/04/27 02:21:20;;;;;;;8.33;6.53;;;2.50;99.90;;;;;;5112696;28;20370;-58
2023/04/27 02:23:46;;;;;;;12.07;7.95;;;2.50;99.90;;;;;;5112910;28;20155;-58
2023/04/27 02:26:16;;;;;;;14.77;9.20;;;2.50;99.90;;;;;;5112843;28;20044;-57
2023/04/27 02:28:42;;;;;;;9.23;7.63;;;2.50;99.90;;;;;;5109530;28;20427;-57
2023/04/27 02:31:07;;;;;;;12.60;8.17;;;2.40;99.90;;;;;;5112159;28;20032;-58
2023/04/27 02:33:33;;;;;;;10.50;8.70;;;2.40;99.90;;;;;;5111475;28;20096;-58
2023/04/27 02:35:58;;;;;;;11.53;7.80;;;2.40;99.90;;;;;;5104097;28;20142;-58
2023/04/27 02:38:24;;;;;;;12.77;6.77;;;2.40;99.90;;;;;;5106796;28;20039;-58
2023/04/27 02:40:53;;;;;;;11.67;7.37;;;2.40;99.90;;;;;;5097020;28;20032;-58
2023/04/27 02:43:20;;;;;;;8.70;7.70;;;2.40;99.90;;;;;;5097144;28;20094;-56
2023/04/27 02:45:45;;;;;;;7.40;5.55;;;2.40;99.90;;;;;;5096718;28;20036;-59
2023/04/27 02:48:11;;;;;;;7.03;5.50;;;2.30;99.90;;;;;;5102791;28;20070;-57
2023/04/27 02:50:43;;;;;;;8.63;6.20;;;2.20;99.90;;;;;;5111945;28;20042;-58
2023/04/27 02:53:10;;;;;;;5.35;4.85;;;2.20;99.90;;;;;;5091475;28;20110;-57
2023/04/27 02:55:36;;;;;;;;;;;2.20;99.90;;;;;;5092977;28;20036;-57
2023/04/27 02:58:01;;;;;;;10.07;5.72;;;2.10;99.90;;;;;;5106139;28;19922;-58
2023/04/27 03:00:27;;;;;;;10.30;6.00;;;2.10;99.90;;;;;;5103264;28;20062;-58
2023/04/27 03:02:53;;;;;;;8.53;7.07;;;2.00;99.90;;;;;;5105189;28;20039;-57
2023/04/27 03:05:18;;;;;;;6.77;5.93;;;2.00;99.90;;;;;;5111213;28;20031;-58
2023/04/27 03:07:44;;;;;;;7.93;6.07;;;1.90;99.90;;;;;;5090262;28;20795;-59
2023/04/27 03:10:10;;;;;;;7.10;5.33;;;1.90;99.90;;;;;;5091180;28;20401;-57
2023/04/27 03:12:35;;;;;;;8.13;6.40;;;1.90;99.90;;;;;;5091100;28;20063;-57
2023/04/27 03:15:01;;;;;;;10.60;7.43;;;1.90;99.90;;;;;;5091310;28;20051;-56
2023/04/27 03:17:27;;;;;;;10.63;6.57;;;1.90;99.90;;;;;;5090478;28;20055;-59
2023/04/27 03:19:53;;;;;;;6.57;5.07;;;1.90;99.90;;;;;;5111080;28;20068;-59
2023/04/27 03:22:19;;;;;;;8.40;6.47;;;1.90;99.90;;;;;;5111378;28;20293;-58
2023/04/27 03:24:45;;;;;;;;;;;1.90;99.90;;;;;;5111733;28;20032;-59
2023/04/27 03:27:11;;;;;;;11.38;6.32;;;1.90;99.90;;;;;;5111217;28;20006;-58
2023/04/27 03:29:36;;;;;;;9.10;6.47;;;1.90;99.90;;;;;;5110220;28;20042;-57
2023/04/27 03:32:03;;;;;;;13.93;7.20;;;1.90;99.90;;;;;;5110773;28;20035;-57
2023/04/27 03:34:29;;;;;;;11.85;7.30;;;1.80;99.90;;;;;;5111402;28;20032;-58
2023/04/27 03:36:55;;;;;;;10.55;6.43;;;1.80;99.90;;;;;;5110774;28;20123;-59
2023/04/27 03:39:20;;;;;;;12.20;6.63;;;1.80;99.90;;;;;;5108572;28;20312;-59
2023/04/27 03:41:46;;;;;;;12.45;7.28;;;1.90;99.90;;;;;;5109817;28;20096;-58
2023/04/27 03:44:11;;;;;;;11.40;7.97;;;1.90;99.90;;;;;;5110529;28;20036;-57
2023/04/27 03:46:37;;;;;;;10.23;6.87;;;1.90;99.90;;;;;;5110414;28;20438;-56
2023/04/27 03:49:03;;;;;;;12.87;8.07;;;1.90;99.90;;;;;;5093955;28;20039;-59
2023/04/27 03:51:31;;;;;;;9.20;6.60;;;1.90;99.90;;;;;;5092433;28;20039;-59
2023/04/27 03:53:56;;;;;;;10.27;7.72;;;1.80;99.90;;;;;;5109167;27;20078;-59
2023/04/27 03:56:22;;;;;;;9.53;8.07;;;1.70;99.90;;;;;;5110953;28;20075;-57
2023/04/27 03:58:48;;;;;;;11.10;7.87;;;1.60;99.90;;;;;;5109852;28;20272;-57
2023/04/27 04:01:13;;;;;;;13.33;9.13;;;1.50;99.90;;;;;;5105714;28;20062;-58
2023/04/27 04:03:39;;;;;;;12.10;7.93;;;1.50;99.90;;;;;;5099254;28;20032;-57
2023/04/27 04:06:05;;;;;;;11.23;8.45;;;1.50;99.90;;;;;;5110869;28;20123;-57
2023/04/27 04:08:32;;;;;;;13.80;8.80;;;1.50;99.90;;;;;;5093902;28;20090;-57
2023/04/27 04:10:58;;;;;;;13.68;8.48;;;1.60;99.90;;;;;;5089058;28;20401;-56
2023/04/27 04:13:24;;;;;;;14.32;8.63;;;1.60;99.90;;;;;;5090355;28;20048;-57
2023/04/27 04:15:59;;;;;;;14.03;8.00;;;1.60;99.90;;;;;;5091162;28;20085;-56
2023/04/27 04:18:24;;;;;;;11.27;9.18;;;1.70;99.90;;;;;;5097590;28;20284;-58
2023/04/27 04:20:50;;;;;;;15.60;8.10;;;1.70;99.90;;;;;;5110276;28;20122;-58
2023/04/27 04:23:15;;;;;;;14.23;7.87;;;1.70;99.90;;;;;;5110334;28;20043;-58
2023/04/27 04:25:42;;;;;;;12.23;8.37;;;1.70;99.90;;;;;;5110096;28;20074;-57
2023/04/27 04:28:07;;;;;;;8.88;7.35;;;1.70;99.90;;;;;;5109108;28;20043;-58
2023/04/27 04:30:33;;;;;;;14.63;9.37;;;1.60;99.90;;;;;;5109493;28;20039;-59
2023/04/27 04:32:58;;;;;;;16.57;9.33;;;1.60;99.90;;;;;;5110463;28;20071;-58
2023/04/27 04:35:24;;;;;;;13.33;9.03;;;1.60;99.90;;;;;;5095849;28;20044;-58
2023/04/27 04:37:50;;;;;;;10.13;8.50;;;1.60;99.90;;;;;;5088625;28;20032;-58
2023/04/27 04:40:15;;;;;;;14.77;9.33;;;1.60;99.90;;;;;;5089158;28;20653;-59
2023/04/27 04:42:41;;;;;;;11.63;8.38;;;1.60;99.90;;;;;;5089653;28;20366;-59
2023/04/27 04:45:07;;;;;;;10.70;8.17;;;1.60;99.90;;;;;;5089309;28;20123;-56
2023/04/27 04:47:33;;;;;;;14.68;8.88;;;1.60;99.90;;;;;;5088829;28;20032;-57
2023/04/27 04:49:59;;;;;;;9.98;7.60;;;1.60;99.90;;;;;;5089318;28;20474;-58
2023/04/27 04:52:25;;;;;;;13.13;7.75;;;1.60;99.90;;;;;;5090180;28;20378;-57
2023/04/27 04:54:52;;;;;;;10.00;7.28;;;1.70;99.90;;;;;;5089612;28;20047;-58
2023/04/27 04:57:17;;;;;;;10.13;7.70;;;1.70;99.90;;;;;;5108521;28;20492;-57
2023/04/27 04:59:43;;;;;;;9.50;7.00;;;1.70;99.90;;;;;;5112620;28;20055;-58
2023/04/27 05:02:09;;;;;;;9.20;7.60;;;1.70;99.90;;;;;;5114301;28;20396;-57
2023/04/27 05:04:34;;;;;;;10.00;7.20;;;1.80;99.90;;;;;;5114107;28;20577;-58
2023/04/27 05:07:00;;;;;;;11.07;7.30;;;1.90;99.90;;;;;;5106774;28;20043;-58
2023/04/27 05:09:25;;;;;;;11.97;8.43;;;2.00;99.90;;;;;;5101147;28;20075;-56
2023/04/27 05:11:51;;;;;;;12.57;8.20;;;2.00;99.90;;;;;;5093618;28;20455;-57
2023/04/27 05:14:17;;;;;;;10.73;7.05;;;2.10;99.90;;;;;;5111372;28;20074;-58
2023/04/27 05:16:42;;;;;;;9.77;7.73;;;2.10;99.90;;;;;;5113395;28;20060;-56
2023/04/27 05:19:08;;;;;;;7.90;6.70;;;2.20;99.90;;;;;;5112871;28;20032;-59
2023/04/27 05:21:33;;;;;;;11.40;7.80;;;2.30;99.90;;;;;;5112361;28;20085;-57
2023/04/27 05:23:59;;;;;;;9.43;7.67;;;2.30;99.90;;;;;;5113837;28;20101;-58
2023/04/27 05:26:25;;;;;;;14.52;8.10;;;2.40;99.90;;;;;;5095887;28;20036;-58
2023/04/27 05:28:50;;;;;;;14.67;10.03;;;2.50;99.90;;;;;;5092251;28;20122;-57
2023/04/27 05:31:16;;;;;;;12.93;7.97;;;2.50;99.90;;;;;;5092836;28;20032;-58
2023/04/27 05:33:42;;;;;;;16.13;9.07;;;2.60;99.90;;;;;;5093410;28;20330;-58
2023/04/27 05:36:08;;;;;;;14.40;9.63;;;2.70;99.90;;;;;;5093455;28;20425;-57
2023/04/27 05:38:35;;;;;;;17.77;9.68;;;2.80;99.90;;;;;;5092248;28;20032;-58
2023/04/27 05:41:00;;;;;;;17.45;9.27;;;2.90;99.90;;;;;;5093067;28;20044;-59
2023/04/27 05:43:26;;;;;;;16.30;11.17;;;3.00;99.90;;;;;;5093126;28;20071;-59
2023/04/27 05:45:52;;;;;;;19.17;9.38;;;3.10;99.90;;;;;;5092695;28;20127;-58
2023/04/27 05:48:18;;;;;;;14.07;10.13;;;3.30;99.90;;;;;;5090505;28;20484;-58
2023/04/27 05:50:44;;;;;;;14.75;9.40;;;3.40;99.90;;;;;;5092798;28;20059;-59
2023/04/27 05:53:10;;;;;;;13.60;9.53;;;3.50;99.90;;;;;;5092890;28;20040;-59
2023/04/27 05:55:36;;;;;;;14.95;9.48;;;3.60;99.90;;;;;;5092907;28;20431;-58
2023/04/27 05:58:02;;;;;;;11.27;9.32;;;3.70;99.90;;;;;;5091354;28;20036;-59
2023/04/27 06:00:28;;;;;;;15.82;9.63;;;3.80;99.90;;;;;;5092383;28;20039;-59
2023/04/27 06:02:54;;;;;;;13.95;9.50;;;3.90;99.90;;;;;;5094498;28;20412;-58
2023/04/27 06:05:20;;;;;;;12.02;9.35;;;4.00;99.90;;;;;;5097425;28;20040;-58
2023/04/27 06:07:46;;;;;;;16.38;10.10;;;4.00;99.90;;;;;;5093214;28;20036;-59
2023/04/27 06:10:12;;;;;;;16.00;9.90;;;4.10;99.90;;;;;;5111819;28;20032;-59
2023/04/27 06:12:38;;;;;;;15.40;9.52;;;4.20;99.90;;;;;;5105624;28;20072;-58
2023/04/27 06:15:07;;;;;;;19.85;11.20;;;4.30;99.90;;;;;;5102612;28;20047;-59
2023/04/27 06:17:36;;;;;;;13.57;9.77;;;4.40;99.90;;;;;;5110757;28;20464;-56
2023/04/27 06:20:05;;;;;;;16.17;10.55;;;4.50;99.90;;;;;;5101112;28;20040;-58
2023/04/27 06:22:31;;;;;;;18.50;10.98;;;4.60;99.90;;;;;;5100856;28;20044;-58
2023/04/27 06:24:57;;;;;;;18.55;9.63;;;4.70;99.90;;;;;;5104776;28;20034;-60
2023/04/27 06:27:23;;;;;;;15.33;9.67;;;4.90;99.90;;;;;;5110434;28;20396;-59
2023/04/27 06:29:48;;;;;;;14.40;8.50;;;5.10;99.90;;;;;;5107726;28;20535;-58
2023/04/27 06:32:14;;;;;;;16.17;10.20;;;5.20;99.90;;;;;;5092095;28;20576;-59
2023/04/27 06:34:40;;;;;;;22.67;10.70;;;5.40;99.90;;;;;;5093675;28;20040;-57
2023/04/27 06:37:06;;;;;;;16.65;9.90;;;5.60;99.90;;;;;;5112655;28;20031;-59
2023/04/27 06:39:31;;;;;;;12.38;9.35;;;5.70;99.90;;;;;;5103306;28;20043;-59
2023/04/27 06:41:57;;;;;;;8.93;6.30;;;5.80;99.90;;;;;;5109853;28;20511;-59
2023/04/27 06:44:23;;;;;;;16.23;6.93;;;6.00;99.90;;;;;;5093028;28;20047;-59
2023/04/27 06:46:48;;;;;;;7.67;5.70;;;6.10;99.90;;;;;;5102207;28;20028;-58
2023/04/27 06:49:14;;;;;;;8.90;5.50;;;6.20;99.90;;;;;;5105993;28;20063;-58
2023/04/27 06:51:40;;;;;;;7.33;3.97;;;6.30;99.90;;;;;;5110237;28;20443;-58
2023/04/27 06:54:06;;;;;;;9.02;3.15;;;6.30;99.90;;;;;;5092009;28;20039;-58
2023/04/27 06:56:32;;;;;;;7.88;3.35;;;6.50;99.90;;;;;;5109167;28;20040;-59
2023/04/27 06:58:57;;;;;;;9.27;3.77;;;6.60;99.90;;;;;;5109391;28;20424;-58
2023/04/27 07:01:23;;;;;;;9.32;4.45;;;6.70;99.90;;;;;;5112109;28;20039;-57
2023/04/27 07:03:49;;;;;;;5.68;4.65;;;6.80;99.90;;;;;;5110029;28;20039;-58
2023/04/27 07:06:14;;;;;;;15.23;3.50;;;6.90;99.90;;;;;;5089972;28;20093;-58
2023/04/27 07:08:40;;;;;;;4.23;3.30;;;6.90;99.90;;;;;;5090014;28;20775;-59
2023/04/27 07:11:06;;;;;;;6.78;3.03;;;7.00;99.90;;;;;;5091392;28;20032;-59
2023/04/27 07:13:32;;;;;;;5.00;3.07;;;7.00;99.90;;;;;;5091663;28;20047;-59
2023/04/27 07:15:57;;;;;;;6.20;3.57;;;7.10;99.90;;;;;;5103723;28;20284;-57
2023/04/27 07:18:23;;;;;;;10.20;3.60;;;7.20;99.90;;;;;;5110214;28;20119;-58
2023/04/27 07:20:48;;;;;;;7.10;3.63;;;7.30;99.90;;;;;;5110978;28;20039;-58
2023/04/27 07:23:15;;;;;;;10.17;4.90;;;7.40;99.90;;;;;;5110083;28;20293;-57
2023/04/27 07:25:40;;;;;;;13.63;3.60;;;7.50;99.90;;;;;;5111558;28;20199;-59
2023/04/27 07:28:06;;;;;;;11.23;3.53;;;7.60;99.90;;;;;;5110294;28;20048;-59
2023/04/27 07:30:35;;;;;;;4.87;2.60;;;7.60;99.90;;;;;;5111007;28;20031;-59
2023/04/27 07:33:00;;;;;;;9.02;3.13;;;7.70;99.90;;;;;;5111438;28;20039;-59
2023/04/27 07:35:26;;;;;;;10.07;3.60;;;7.70;99.90;;;;;;5110053;28;20369;-58
2023/04/27 07:37:51;;;;;;;4.77;2.60;;;7.80;99.90;;;;;;5109776;28;20044;-58
2023/04/27 07:40:17;;;;;;;4.50;2.30;;;7.90;99.90;;;;;;5110924;28;20415;-59
2023/04/27 07:42:45;;;;;;;7.05;2.90;;;7.90;99.90;;;;;;5111024;28;20043;-58
2023/04/27 07:45:11;;;;;;;6.75;3.30;;;8.00;99.90;;;;;;5111267;28;20074;-59
2023/04/27 07:47:37;;;;;;;4.75;3.00;;;8.00;99.90;;;;;;5109727;28;20412;-59
2023/04/27 07:50:07;;;;;;;5.18;2.50;;;8.10;99.90;;;;;;5110327;28;20047;-59
2023/04/27 07:52:32;;;;;;;4.53;2.95;;;8.20;99.90;;;;;;5110911;28;20620;-58
2023/04/27 07:54:58;;;;;;;4.97;2.30;;;8.20;99.90;;;;;;5111318;28;20159;-59
2023/04/27 07:57:24;;;;;;;4.67;2.80;;;8.20;99.90;;;;;;5109573;28;20496;-58
2023/04/27 07:59:49;;;;;;;5.20;2.42;;;8.30;99.90;;;;;;5110068;28;20273;-59
2023/04/27 08:02:15;;;;;;;5.03;2.30;;;8.40;99.90;;;;;;5110680;28;20047;-59
2023/04/27 08:04:40;;;;;;;4.57;2.67;;;8.40;99.90;;;;;;5100857;28;20286;-59
2023/04/27 08:07:06;;;;;;;8.90;2.17;;;8.50;99.90;;;;;;5105130;28;20048;-59
2023/04/27 08:09:32;;;;;;;5.50;2.30;;;8.60;99.90;;;;;;5109161;28;20503;-59
2023/04/27 08:11:57;;;;;;;3.50;1.90;;;8.60;99.90;;;;;;5094281;28;20119;-59
2023/04/27 08:14:23;;;;;;;2.87;1.30;;;8.70;99.90;;;;;;5110466;28;20039;-58
2023/04/27 08:16:50;;;;;;;3.55;1.80;;;8.70;99.90;;;;;;5110199;28;20488;-58
2023/04/27 08:19:17;;;;;;;6.45;3.22;;;8.80;99.90;;;;;;5108612;28;20058;-59
2023/04/27 08:21:43;;;;;;;5.80;2.20;;;8.90;99.90;;;;;;5109933;28;20047;-59
2023/04/27 08:24:08;;;;;;;8.50;2.97;;;8.90;99.90;;;;;;5099748;28;20051;-60
2023/04/27 08:26:34;;;;;;;2.53;1.80;;;9.10;99.90;;;;;;5103542;28;20028;-59
2023/04/27 08:29:00;;;;;;;5.68;2.42;;;9.20;99.90;;;;;;5107757;28;20416;-59
2023/04/27 08:31:26;;;;;;;2.58;1.50;;;9.20;99.90;;;;;;5109499;28;20556;-58
2023/04/27 08:33:52;;;;;;;4.45;1.45;;;9.20;99.90;;;;;;5099626;28;20114;-57
2023/04/27 08:36:23;;;;;;;4.47;1.88;;;9.30;99.90;;;;;;5108495;28;20044;-60
2023/04/27 08:38:50;;;;;;;3.25;2.05;;;9.30;99.90;;;;;;5105405;28;20415;-59
2023/04/27 08:41:22;;;;;;;3.72;2.88;;;9.20;99.90;;;;;;5109980;28;20104;-59
2023/04/27 08:43:49;;;;;;;6.13;3.40;;;9.30;99.90;;;;;;5096551;28;20063;-59
2023/04/27 08:46:22;;;;;;;5.68;3.17;;;9.50;99.90;;;;;;5090198;28;20051;-58
2023/04/27 08:48:52;;;;;;;7.47;2.53;;;9.50;99.90;;;;;;5089833;28;20039;-60
2023/04/27 08:51:19;;;;;;;5.47;3.03;;;9.60;99.90;;;;;;5106374;28;20140;-59
2023/04/27 08:53:52;;;;;;;5.15;2.33;;;9.70;99.90;;;;;;5103276;28;20058;-59
2023/04/27 08:56:18;;;;;;;4.07;2.20;;;9.70;99.90;;;;;;5107297;28;20147;-59
2023/04/27 08:58:44;;;;;;;;;;;9.80;99.90;;;;;;5094719;28;20063;-58
2023/04/27 09:01:10;;;;;;;4.47;1.95;;;9.90;99.90;;;;;;5101787;28;19978;-59
2023/04/27 09:03:36;;;;;;;4.85;1.75;;;10.00;99.90;;;;;;5089397;28;20401;-58
2023/04/27 09:06:02;;;;;;;5.22;2.40;;;10.00;98.80;;;;;;5089439;28;20074;-59
2023/04/27 09:08:28;;;;;;;3.17;1.88;;;10.00;98.60;;;;;;5106344;28;20038;-59
2023/04/27 09:10:54;;;;;;;3.80;2.55;;;10.00;98.80;;;;;;5109126;28;20032;-57
2023/04/27 09:13:20;;;;;;;3.10;2.17;;;10.00;99.90;;;;;;5090995;28;20044;-59
2023/04/27 09:15:48;;;;;;;2.25;1.95;;;10.10;98.90;;;;;;5089251;28;20480;-59
2023/04/27 09:18:20;;;;;;;7.22;2.08;;;10.20;99.80;;;;;;5104168;28;20531;-60
2023/04/27 09:20:51;;;;;;;4.50;2.45;;;10.40;98.00;;;;;;5108900;28;20036;-60
2023/04/27 09:23:30;;;;;;;6.68;2.40;;;10.50;98.90;;;;;;5094056;28;20048;-59
2023/04/27 09:25:57;;;;;;;4.10;2.35;;;10.60;98.30;;;;;;5089423;28;20032;-59
2023/04/27 09:28:27;;;;;;;7.45;2.65;;;10.70;97.10;;;;;;5103726;28;20457;-59
2023/04/27 09:30:55;;;;;;;3.70;2.00;;;10.70;98.00;;;;;;5094142;28;20042;-60
2023/04/27 09:33:26;;;;;;;7.07;2.72;;;10.80;97.30;;;;;;5094281;28;20150;-60
2023/04/27 09:35:53;;;;;;;3.28;2.13;;;10.80;96.90;;;;;;5108856;28;20036;-59
2023/04/27 09:38:20;;;;;;;4.25;2.25;;;10.90;97.60;;;;;;5107539;28;20122;-58
2023/04/27 09:40:47;;;;;;;3.05;2.05;;;10.90;97.10;;;;;;5107173;28;20131;-58
2023/04/27 09:43:13;;;;;;;6.45;2.03;;;11.00;97.30;;;;;;5098272;28;20046;-57
2023/04/27 09:45:39;;;;;;;7.32;1.83;;;11.00;96.40;;;;;;5092333;28;20552;-59
2023/04/27 09:48:05;;;;;;;8.85;2.17;;;11.10;96.80;;;;;;5102645;28;20115;-58
2023/04/27 09:50:38;;;;;;;4.25;2.58;;;11.10;96.00;;;;;;5111037;28;20035;-57
2023/04/27 09:53:06;;;;;;;3.22;2.50;;;11.30;96.80;;;;;;5101902;28;20114;-58
2023/04/27 09:56:13;;;;;;;9.63;3.00;;;11.40;97.30;;;;;;5092360;28;20075;-58
2023/04/27 09:59:16;;;;;;;5.65;3.05;;;11.50;96.50;;;;;;5031938;28;20057;-60
2023/04/27 10:01:50;;;;;;;4.50;3.00;;;11.60;95.90;;;;;;5050669;28;20087;-60
2023/04/27 10:05:09;;;;;;;5.57;2.13;;;11.70;96.30;;;;;;5068083;28;20055;-59
2023/04/27 10:07:37;;;;;;;3.58;3.28;;;11.70;94.60;;;;;;4983195;28;21334;-59
2023/04/27 10:10:04;;;;;;;4.57;2.40;;;11.70;95.90;;;;;;4980190;28;20573;-57
2023/04/27 10:12:36;;;;;;;6.45;2.80;;;11.70;95.60;;;;;;4985857;28;20064;-60
2023/04/27 10:15:15;;;;;;;3.53;2.60;;;11.80;94.90;;;;;;4989240;28;20104;-59
2023/04/27 10:17:57;;;;;;;8.93;3.38;;;11.90;94.80;;;;;;4987209;28;20038;-58
2023/04/27 10:20:35;;;;;;;3.15;2.40;;;12.10;95.00;;;;;;4975741;28;20572;-60
2023/04/27 10:23:01;;;;;;;4.13;2.53;;;12.10;95.30;;;;;;4971246;28;20046;-60
2023/04/27 10:25:41;;;;;;;2.38;2.15;;;12.20;94.70;;;;;;4969937;28;20047;-60
2023/04/27 10:28:13;;;;;;;4.35;2.92;;;12.30;94.60;;;;;;4975814;28;20065;-58
2023/04/27 10:30:45;;;;;;;3.00;2.63;;;12.40;94.90;;;;;;4983954;28;20109;-59
2023/04/27 10:33:14;;;;;;;5.13;2.63;;;12.60;95.60;;;;;;4979414;28;20158;-60
2023/04/27 10:35:53;;;;;;;6.00;2.47;;;12.80;95.10;;;;;;5029216;28;20041;-60
2023/04/27 10:38:21;;;;;;;5.07;2.20;;;12.90;93.20;;;;;;5065449;28;20131;-60
2023/04/27 10:40:55;;;;;;;5.70;2.92;;;12.90;93.70;;;;;;5111893;28;20036;-60
2023/04/27 10:43:25;;;;;;;3.10;2.50;;;12.90;94.40;;;;;;5103979;28;20104;-59
2023/04/27 10:45:50;;;;;;;3.47;2.05;;;13.00;93.90;;;;;;5102925;28;20040;-60
2023/04/27 10:48:16;;;;;;;4.50;2.07;;;13.10;93.10;;;;;;5098710;28;20557;-59
2023/04/27 10:50:45;;;;;;;7.00;3.10;;;13.20;93.40;;;;;;5103588;28;20285;-60
2023/04/27 10:53:12;;;;;;;4.82;3.03;;;13.20;93.30;;;;;;5110886;28;20051;-60
2023/04/27 10:55:38;;;;;;;7.80;2.88;;;13.20;93.30;;;;;;5110116;28;20416;-60
2023/04/27 10:58:04;;;;;;;6.28;3.30;;;13.20;93.00;;;;;;5108829;28;20038;-60
2023/04/27 11:00:36;;;;;;;4.28;2.58;;;13.30;92.40;;;;;;5111373;28;20043;-60
2023/04/27 11:03:22;;;;;;;4.85;2.78;;;13.20;92.40;;;;;;5110416;28;20142;-59
2023/04/27 11:05:57;;;;;;;8.10;3.87;;;13.30;91.90;;;;;;5111417;28;20039;-60
2023/04/27 11:08:23;;;;;;;6.32;3.40;;;13.30;91.90;;;;;;5108847;28;20031;-59
2023/04/27 11:10:50;;;;;;;4.65;3.20;;;13.50;92.50;;;;;;5110683;28;20054;-60
2023/04/27 11:13:18;;;;;;;5.60;2.95;;;13.60;92.10;;;;;;5103077;28;20064;-60
2023/04/27 11:15:53;;;;;;;6.88;2.60;;;13.60;92.30;;;;;;5090785;28;20044;-62
2023/04/27 11:18:20;;;;;;;3.10;2.60;;;13.60;91.80;;;;;;5101843;28;20035;-57
2023/04/27 11:20:49;;;;;;;6.68;3.28;;;13.60;88.90;;;;;;5111203;28;20047;-60
2023/04/27 11:23:25;;;;;;;3.90;3.05;;;13.70;90.70;;;;;;5110209;28;20047;-58
2023/04/27 11:25:51;;;;;;;6.97;2.78;;;13.80;90.30;;;;;;5111215;28;20155;-60
2023/04/27 11:28:23;;;;;;;5.35;3.28;;;13.90;90.20;;;;;;5110048;28;20035;-60
2023/04/27 11:30:58;;;;;;;5.90;3.03;;;14.00;91.00;;;;;;5110974;28;20382;-60
2023/04/27 11:33:25;;;;;;;3.95;3.33;;;14.10;90.70;;;;;;5103209;28;20047;-60
2023/04/27 11:35:51;;;;;;;4.25;3.80;;;14.20;90.30;;;;;;5105118;28;20535;-58
2023/04/27 11:38:18;;;;;;;6.63;3.28;;;14.30;89.80;;;;;;5093592;28;20032;-59
2023/04/27 11:40:46;;;;;;;5.55;2.72;;;14.30;87.60;;;;;;5107881;28;20392;-60
2023/04/27 11:43:14;;;;;;;3.55;2.85;;;14.20;85.30;;;;;;5110856;28;20499;-60
2023/04/27 11:45:43;;;;;;;3.85;3.10;;;14.10;82.90;;;;;;5108495;28;20036;-59
2023/04/27 11:48:15;;;;;;;4.45;3.05;;;13.90;83.10;;;;;;5109542;27;20043;-60
2023/04/27 11:50:47;;;;;;;7.00;3.67;;;13.90;84.30;;;;;;5110003;28;20043;-60
2023/04/27 11:53:12;;;;;;;5.30;3.65;;;13.90;85.30;;;;;;5110307;28;20047;-60
2023/04/27 11:55:40;;;;;;;5.60;2.90;;;13.90;84.50;;;;;;5109059;28;20032;-58
2023/04/27 11:58:11;;;;;;;4.78;3.03;;;13.90;85.60;;;;;;5108837;28;20404;-59
2023/04/27 12:00:37;;;;;;;7.55;3.33;;;13.90;84.10;;;;;;5108041;28;20120;-60
2023/04/27 12:03:03;;;;;;;6.05;3.72;;;14.00;83.60;;;;;;5090345;28;20118;-60
2023/04/27 12:05:28;;;;;;;4.82;2.90;;;13.90;83.10;;;;;;5089360;28;20067;-59
2023/04/27 12:07:54;;;;;;;4.15;3.40;;;13.90;83.10;;;;;;5099008;28;20040;-59
2023/04/27 12:10:19;;;;;;;7.72;3.63;;;13.80;81.10;;;;;;5089858;28;20043;-60
2023/04/27 12:12:45;;;;;;;10.55;6.57;;;13.80;82.40;;;;;;5104958;28;20404;-60
2023/04/27 12:15:11;;;;;;;11.70;4.93;;;13.80;81.60;;;;;;5110037;28;20089;-59
2023/04/27 12:17:38;;;;;;;3.60;2.60;;;13.90;84.10;;;;;;5107553;28;20601;-58
2023/04/27 12:20:04;;;;;;;8.07;2.75;;;14.00;82.40;;;;;;5105877;28;20032;-59
2023/04/27 12:22:30;;;;;;;4.80;3.40;;;14.10;81.70;;;;;;5099265;28;20047;-59
2023/04/27 12:24:56;;;;;;;4.72;3.25;;;14.20;82.90;;;;;;5098190;28;20308;-57
2023/04/27 12:27:22;;;;;;;6.35;4.57;;;14.20;82.00;;;;;;5098280;28;20031;-61
2023/04/27 12:29:47;;;;;;;4.80;3.78;;;14.20;82.30;;;;;;5099435;28;20547;-59
2023/04/27 12:32:13;;;;;;;8.32;3.05;;;14.10;81.00;;;;;;5101742;28;20027;-61
2023/04/27 12:34:38;;;;;;;4.68;3.60;;;14.10;81.10;;;;;;5089023;28;20127;-58
2023/04/27 12:37:05;;;;;;;5.07;3.55;;;14.10;81.30;;;;;;5094243;28;20027;-60
2023/04/27 12:39:30;;;;;;;;;;;14.20;81.40;;;;;;5094572;28;20048;-60
2023/04/27 12:41:57;;;;;;;5.07;3.67;;;14.20;81.00;;;;;;5098771;28;20426;-59
2023/04/27 12:44:23;;;;;;;8.30;2.92;;;14.40;81.10;;;;;;5109146;27;20036;-59
2023/04/27 12:46:49;;;;;;;5.03;3.67;;;14.40;82.50;;;;;;5109135;28;20085;-59
2023/04/27 12:49:16;;;;;;;8.60;3.97;;;14.50;80.50;;;;;;5108319;28;20533;-60